createdAt,value
2023-03-04T00:01:51.827Z,67.78
2023-03-04T00:04:18.520Z,72.05
2023-03-04T00:06:45.136Z,71.32
2023-03-04T00:09:11.775Z,65.65
2023-03-04T00:11:38.413Z,56.33
2023-03-04T00:14:05.104Z,66.35
2023-03-04T00:16:31.909Z,66.13
2023-03-04T00:18:58.630Z,71.45
2023-03-04T00:21:25.401Z,70.25
2023-03-04T00:23:52.103Z,70.32
2023-03-04T00:26:18.892Z,74.43
2023-03-04T00:28:45.552Z,68.55
2023-03-04T00:31:12.425Z,75.18
2023-03-04T00:33:40.360Z,65.88
2023-03-04T00:36:07.391Z,68.40
2023-03-04T00:38:34.011Z,63.10
2023-03-04T00:41:00.688Z,66.07
2023-03-04T00:43:27.306Z,58.53
2023-03-04T00:45:54.104Z,58.72
2023-03-04T00:48:20.733Z,64.57
2023-03-04T00:50:47.370Z,63.95
2023-03-04T00:53:14.002Z,70.30
2023-03-04T00:55:40.742Z,67.82
2023-03-04T00:58:07.355Z,62.72
2023-03-04T01:00:34.012Z,67.07
2023-03-04T01:03:00.623Z,69.13
2023-03-04T01:05:27.287Z,65.55
2023-03-04T01:07:53.906Z,60.25
2023-03-04T01:10:20.792Z,68.47
2023-03-04T01:12:47.533Z,68.50
2023-03-04T01:15:14.852Z,74.32
2023-03-04T01:17:41.691Z,69.65
2023-03-04T01:20:09.617Z,65.65
2023-03-04T01:22:36.358Z,73.55
2023-03-04T01:25:03.401Z,62.63
2023-03-04T01:27:30.042Z,66.07
2023-03-04T01:29:56.686Z,64.80
2023-03-04T01:32:23.340Z,65.20
2023-03-04T01:34:49.989Z,65.85
2023-03-04T01:37:16.613Z,65.40
2023-03-04T01:39:43.229Z,65.82
2023-03-04T01:42:21.913Z,64.85
2023-03-04T01:44:49.819Z,64.20
2023-03-04T01:47:17.181Z,71.13
2023-03-04T01:49:43.973Z,65.47
2023-03-04T01:52:14.260Z,67.40
2023-03-04T01:54:41.692Z,59.42
2023-03-04T01:57:20.525Z,64.70
2023-03-04T01:59:48.197Z,62.63
2023-03-04T02:02:15.090Z,63.00
2023-03-04T02:04:42.554Z,66.38
2023-03-04T02:07:09.485Z,69.90
2023-03-04T02:09:36.820Z,70.32
2023-03-04T02:12:03.576Z,64.00
2023-03-04T02:14:31.379Z,68.38
2023-03-04T02:16:58.075Z,73.05
2023-03-04T02:19:42.184Z,70.00
2023-03-04T02:22:09.155Z,62.67
2023-03-04T02:24:43.397Z,65.40
2023-03-04T02:27:10.214Z,63.38
2023-03-04T02:29:37.083Z,67.68
2023-03-04T02:32:04.115Z,64.03
2023-03-04T02:34:34.026Z,71.70
2023-03-04T02:37:02.449Z,69.38
2023-03-04T02:39:36.578Z,56.28
2023-03-04T02:42:04.090Z,69.93
2023-03-04T02:44:32.930Z,58.60
2023-03-04T02:46:59.587Z,65.53
2023-03-04T02:49:28.426Z,67.72
2023-03-04T02:52:20.425Z,68.88
2023-03-04T02:54:47.236Z,67.82
2023-03-04T02:57:14.997Z,60.10
2023-03-04T02:59:42.378Z,64.57
2023-03-04T03:02:10.329Z,59.28
2023-03-04T03:04:39.120Z,62.80
2023-03-04T03:07:06.160Z,68.10
2023-03-04T03:09:32.817Z,66.65
2023-03-04T03:11:59.444Z,64.13
2023-03-04T03:14:26.087Z,61.33
2023-03-04T03:16:52.747Z,64.63
2023-03-04T03:19:19.340Z,60.15
2023-03-04T03:21:46.042Z,61.35
2023-03-04T03:24:12.690Z,62.92
2023-03-04T03:26:40.028Z,60.33
2023-03-04T03:29:06.654Z,65.40
2023-03-04T03:31:33.340Z,67.32
2023-03-04T03:33:59.957Z,64.47
2023-03-04T03:36:26.646Z,66.63
2023-03-04T03:38:53.357Z,65.38
2023-03-04T03:41:20.021Z,61.92
2023-03-04T03:43:46.635Z,60.63
2023-03-04T03:46:13.338Z,63.22
2023-03-04T03:48:39.949Z,66.75
2023-03-04T03:51:06.612Z,63.25
2023-03-04T03:53:33.229Z,66.35
2023-03-04T03:55:59.858Z,61.97
2023-03-04T03:58:26.959Z,66.00
2023-03-04T04:00:54.025Z,66.22
2023-03-04T04:03:21.917Z,68.22
2023-03-04T04:05:48.562Z,60.10
2023-03-04T04:08:17.350Z,57.78
2023-03-04T04:10:44.240Z,57.30
2023-03-04T04:13:11.418Z,63.58
2023-03-04T04:15:38.925Z,58.83
2023-03-04T04:18:07.082Z,58.47
2023-03-04T04:20:34.149Z,62.08
2023-03-04T04:23:01.265Z,67.95
2023-03-04T04:25:29.175Z,61.83
2023-03-04T04:27:55.791Z,64.65
2023-03-04T04:30:22.434Z,64.38
2023-03-04T04:32:49.065Z,68.00
2023-03-04T04:35:15.728Z,63.72
2023-03-04T04:37:42.328Z,61.33
2023-03-04T04:40:09.624Z,62.00
2023-03-04T04:42:36.256Z,62.15
2023-03-04T04:45:03.644Z,62.72
2023-03-04T04:47:30.458Z,58.78
2023-03-04T04:49:59.284Z,64.45
2023-03-04T04:52:25.967Z,61.75
2023-03-04T04:54:52.619Z,62.20
2023-03-04T04:57:19.301Z,59.90
2023-03-04T04:59:45.887Z,59.60
2023-03-04T05:02:12.563Z,61.50
2023-03-04T05:04:39.147Z,59.92
2023-03-04T05:07:05.798Z,61.58
2023-03-04T05:09:32.447Z,60.33
2023-03-04T05:11:59.120Z,63.33
2023-03-04T05:14:25.765Z,60.03
2023-03-04T05:16:53.028Z,60.67
2023-03-04T05:19:21.163Z,60.00
2023-03-04T05:21:47.815Z,65.55
2023-03-04T05:24:14.479Z,65.40
2023-03-04T05:26:41.332Z,58.72
2023-03-04T05:29:08.054Z,56.47
2023-03-04T05:31:34.807Z,57.08
2023-03-04T05:34:01.445Z,61.25
2023-03-04T05:36:28.157Z,61.38
2023-03-04T05:38:54.775Z,59.47
2023-03-04T05:41:22.729Z,65.57
2023-03-04T05:43:50.217Z,60.63
2023-03-04T05:46:19.154Z,67.07
2023-03-04T05:48:46.060Z,59.73
2023-03-04T05:51:12.661Z,57.92
2023-03-04T05:53:40.098Z,64.03
2023-03-04T05:56:11.631Z,60.92
2023-03-04T05:58:38.289Z,62.92
2023-03-04T06:01:05.603Z,59.35
2023-03-04T06:03:32.329Z,59.72
2023-03-04T06:05:59.447Z,63.08
2023-03-04T06:08:27.775Z,53.53
2023-03-04T06:10:56.177Z,63.50
2023-03-04T06:13:23.715Z,59.72
2023-03-04T06:15:56.497Z,72.80
2023-03-04T06:18:24.432Z,66.30
2023-03-04T06:20:51.449Z,65.32
2023-03-04T06:23:18.068Z,58.53
2023-03-04T06:25:44.797Z,58.30
2023-03-04T06:28:11.435Z,60.42
2023-03-04T06:30:38.149Z,63.75
2023-03-04T06:33:04.763Z,65.40
2023-03-04T06:35:31.435Z,61.80
2023-03-04T06:37:58.065Z,60.67
2023-03-04T06:40:24.716Z,66.40
2023-03-04T06:42:51.373Z,65.18
2023-03-04T06:45:18.092Z,64.72
2023-03-04T06:47:45.052Z,67.25
2023-03-04T06:50:13.026Z,67.00
2023-03-04T06:52:40.640Z,67.88
2023-03-04T06:55:08.567Z,68.18
2023-03-04T06:57:35.562Z,68.50
2023-03-04T07:00:03.384Z,64.28
2023-03-04T07:02:30.156Z,60.58
2023-03-04T07:04:56.856Z,63.63
2023-03-04T07:07:23.688Z,73.47
2023-03-04T07:09:50.317Z,63.15
2023-03-04T07:12:16.949Z,66.72
2023-03-04T07:14:43.572Z,64.65
2023-03-04T07:17:10.187Z,70.25
2023-03-04T07:19:36.971Z,66.80
2023-03-04T07:22:03.675Z,64.15
2023-03-04T07:24:30.318Z,67.57
2023-03-04T07:26:56.940Z,66.35
2023-03-04T07:29:23.608Z,64.88
2023-03-04T07:31:53.111Z,69.70
2023-03-04T07:36:46.949Z,75.07
2023-03-04T07:39:13.880Z,73.15
2023-03-04T07:41:40.905Z,75.20
2023-03-04T07:44:09.002Z,74.20
2023-03-04T07:46:35.882Z,80.03
2023-03-04T07:49:02.564Z,68.38
2023-03-04T07:51:29.349Z,70.00
2023-03-04T07:53:59.650Z,61.72
2023-03-04T07:56:29.799Z,64.65
2023-03-04T08:01:37.446Z,76.45
2023-03-04T08:04:06.512Z,75.57
2023-03-04T08:06:33.932Z,66.68
2023-03-04T08:09:06.479Z,52.35
2023-03-04T08:11:34.516Z,54.40
2023-03-04T08:14:01.197Z,63.03
2023-03-04T08:16:28.681Z,60.03
2023-03-04T08:18:57.846Z,59.03
2023-03-04T08:21:25.994Z,70.07
2023-03-04T08:23:52.786Z,57.10
2023-03-04T08:26:33.968Z,57.60
2023-03-04T08:29:03.633Z,63.88
2023-03-04T08:31:30.363Z,54.92
2023-03-04T08:33:57.498Z,60.63
2023-03-04T08:36:24.280Z,61.78
2023-03-04T08:38:50.986Z,56.45
2023-03-04T08:41:17.657Z,58.97
2023-03-04T08:43:44.359Z,67.90
2023-03-04T08:46:11.244Z,60.75
2023-03-04T08:48:38.779Z,67.72
2023-03-04T08:51:10.312Z,69.15
2023-03-04T08:53:37.902Z,72.72
2023-03-04T08:56:05.353Z,64.35
2023-03-04T08:58:32.330Z,63.55
2023-03-04T09:01:00.985Z,70.35
2023-03-04T09:03:28.798Z,63.78
2023-03-04T09:05:55.919Z,64.07
2023-03-04T09:08:23.162Z,65.88
2023-03-04T09:10:53.726Z,67.93
2023-03-04T09:13:20.900Z,67.18
2023-03-04T09:15:49.271Z,63.90
2023-03-04T09:18:17.880Z,77.18
2023-03-04T09:20:45.777Z,63.88
2023-03-04T09:23:12.975Z,74.13
2023-03-04T09:25:40.045Z,65.00
2023-03-04T09:28:07.350Z,72.95
2023-03-04T09:30:35.417Z,72.22
2023-03-04T09:33:02.397Z,73.70
2023-03-04T09:35:30.082Z,67.35
2023-03-04T09:37:57.878Z,77.25
2023-03-04T09:40:37.818Z,68.25
2023-03-04T09:43:06.608Z,71.78
2023-03-04T09:45:41.427Z,64.97
2023-03-04T09:48:12.954Z,67.72
2023-03-04T09:50:46.487Z,68.35
2023-03-04T09:53:24.899Z,74.60
2023-03-04T09:55:52.879Z,71.70
2023-03-04T09:58:44.774Z,70.72
2023-03-04T10:01:25.498Z,70.93
2023-03-04T10:03:59.501Z,68.75
2023-03-04T10:06:27.287Z,70.10
2023-03-04T10:09:04.477Z,68.47
2023-03-04T10:11:48.197Z,77.32
2023-03-04T10:14:20.979Z,69.53
2023-03-04T10:17:05.707Z,70.55
2023-03-04T10:19:44.670Z,74.22
2023-03-04T10:22:37.574Z,68.82
2023-03-04T10:25:42.622Z,73.22
2023-03-04T10:28:21.676Z,72.45
2023-03-04T10:31:02.698Z,75.80
2023-03-04T10:33:32.659Z,63.63
2023-03-04T10:36:10.540Z,77.38
2023-03-04T10:38:41.203Z,67.60
2023-03-04T10:41:16.126Z,69.15
2023-03-04T10:43:46.725Z,57.92
2023-03-04T10:46:15.371Z,74.05
2023-03-04T10:48:44.787Z,66.07
2023-03-04T10:51:23.321Z,76.20
2023-03-04T10:53:57.044Z,72.47
2023-03-04T10:57:13.025Z,66.78
2023-03-04T10:59:53.662Z,74.68
2023-03-04T11:02:29.847Z,69.80
2023-03-04T11:05:17.520Z,70.43
2023-03-04T11:07:57.059Z,69.50
2023-03-04T11:10:36.494Z,73.63
2023-03-04T11:13:17.758Z,63.25
2023-03-04T11:15:47.450Z,68.13
2023-03-04T11:18:15.010Z,69.88
2023-03-04T11:20:46.678Z,68.90
2023-03-04T11:23:17.873Z,67.47
2023-03-04T11:25:49.849Z,64.45
2023-03-04T11:28:22.991Z,73.43
2023-03-04T11:31:05.247Z,67.40
2023-03-04T11:33:53.660Z,65.68
2023-03-04T11:36:40.575Z,68.70
2023-03-04T11:39:22.246Z,70.43
2023-03-04T11:41:58.503Z,65.35
2023-03-04T11:44:25.415Z,60.35
2023-03-04T11:47:11.361Z,59.65
2023-03-04T11:50:04.098Z,58.28
2023-03-04T11:52:42.213Z,54.20
2023-03-04T11:55:08.853Z,56.15
2023-03-04T11:57:52.884Z,55.22
2023-03-04T12:00:57.780Z,53.10
2023-03-04T12:03:58.236Z,50.63
2023-03-04T12:06:50.427Z,48.58
2023-03-04T12:09:22.950Z,56.88
2023-03-04T12:12:11.477Z,43.22
2023-03-04T12:15:23.204Z,51.40
2023-03-04T12:18:19.386Z,45.95
2023-03-04T12:20:59.829Z,50.58
2023-03-04T12:23:48.419Z,49.53
2023-03-04T12:26:56.539Z,47.45
2023-03-04T12:29:31.308Z,44.90
2023-03-04T12:32:21.128Z,46.38
2023-03-04T12:35:01.807Z,48.25
2023-03-04T12:37:54.627Z,45.85
2023-03-04T12:40:32.639Z,51.13
2023-03-04T12:43:26.539Z,49.95
2023-03-04T12:46:19.827Z,51.35
2023-03-04T12:48:52.425Z,51.67
2023-03-04T12:51:31.149Z,48.58
2023-03-04T12:54:18.915Z,53.42
2023-03-04T12:57:03.013Z,51.63
2023-03-04T12:59:36.764Z,50.90
2023-03-04T13:02:27.312Z,45.08
2023-03-04T13:05:31.409Z,48.22
2023-03-04T13:08:21.104Z,48.22
2023-03-04T13:10:49.790Z,40.63
2023-03-04T13:13:36.895Z,43.13
2023-03-04T13:16:07.040Z,52.78
2023-03-04T13:18:41.343Z,46.58
2023-03-04T13:21:14.155Z,49.85
2023-03-04T13:23:41.062Z,45.70
2023-03-04T13:26:34.607Z,50.25
2023-03-04T13:29:10.432Z,47.90
2023-03-04T13:32:04.096Z,55.67
2023-03-04T13:34:54.463Z,52.63
2023-03-04T13:40:20.652Z,52.78
2023-03-04T13:42:47.516Z,53.13
2023-03-04T13:45:32.236Z,48.17
2023-03-04T13:47:59.901Z,47.78
2023-03-04T13:50:40.601Z,53.95
2023-03-04T13:53:29.977Z,47.78
2023-03-04T13:56:12.008Z,42.77
2023-03-04T13:58:39.640Z,46.42
2023-03-04T14:01:25.309Z,44.38
2023-03-04T14:03:52.070Z,44.72
2023-03-04T14:06:27.710Z,45.63
2023-03-04T14:08:55.387Z,45.80
2023-03-04T14:11:42.576Z,45.20
2023-03-04T14:14:14.211Z,46.50
2023-03-04T14:16:58.928Z,43.80
2023-03-04T14:19:29.040Z,48.65
2023-03-04T14:21:56.364Z,46.50
2023-03-04T14:24:23.816Z,37.13
2023-03-04T14:27:03.355Z,41.58
2023-03-04T14:29:33.231Z,44.80
2023-03-04T14:32:00.432Z,44.25
2023-03-04T14:34:35.687Z,45.85
2023-03-04T14:37:04.995Z,41.20
2023-03-04T14:39:37.888Z,40.27
2023-03-04T14:42:10.934Z,40.42
2023-03-04T14:44:44.163Z,40.40
2023-03-04T14:47:19.252Z,36.67
2023-03-04T14:49:46.698Z,41.85
2023-03-04T14:52:34.158Z,43.53
2023-03-04T14:55:16.322Z,44.28
2023-03-04T14:57:45.482Z,44.38
2023-03-04T15:00:21.574Z,45.25
2023-03-04T15:03:18.149Z,39.30
2023-03-04T15:05:46.205Z,40.80
2023-03-04T15:08:37.166Z,41.35
2023-03-04T15:11:06.234Z,42.13
2023-03-04T15:13:48.572Z,40.38
2023-03-04T15:16:17.256Z,40.40
2023-03-04T15:19:06.581Z,44.65
2023-03-04T15:21:36.748Z,48.55
2023-03-04T15:24:06.065Z,47.20
2023-03-04T15:26:34.640Z,45.73
2023-03-04T15:29:03.444Z,42.78
2023-03-04T15:31:30.138Z,47.10
2023-03-04T15:33:56.821Z,42.55
2023-03-04T15:36:24.167Z,46.75
2023-03-04T15:38:53.469Z,49.63
2023-03-04T15:41:25.536Z,42.77
2023-03-04T15:43:54.068Z,48.50
2023-03-04T15:46:21.574Z,49.72
2023-03-04T15:48:48.857Z,51.45
2023-03-04T15:51:20.849Z,49.72
2023-03-04T15:53:50.265Z,45.70
2023-03-04T15:56:20.103Z,45.35
2023-03-04T15:58:59.427Z,44.03
2023-03-04T16:01:26.129Z,50.80
2023-03-04T16:03:53.879Z,49.72
2023-03-04T16:06:23.374Z,46.78
2023-03-04T16:08:51.374Z,48.90
2023-03-04T16:11:22.011Z,46.85
2023-03-04T16:13:49.068Z,47.65
2023-03-04T16:16:16.378Z,53.60
2023-03-04T16:18:43.539Z,48.55
2023-03-04T16:21:18.556Z,47.95
2023-03-04T16:23:48.403Z,50.25
2023-03-04T16:26:18.366Z,49.95
2023-03-04T16:28:45.028Z,50.85
2023-03-04T16:31:14.131Z,48.08
2023-03-04T16:33:41.262Z,51.42
2023-03-04T16:36:22.342Z,54.15
2023-03-04T16:38:49.461Z,48.50
2023-03-04T16:41:20.287Z,53.10
2023-03-04T16:43:46.917Z,55.08
2023-03-04T16:46:14.190Z,52.35
2023-03-04T16:48:41.142Z,58.33
2023-03-04T16:51:19.512Z,50.35
2023-03-04T16:53:54.713Z,56.00
2023-03-04T16:56:21.796Z,61.72
2023-03-04T16:58:49.226Z,53.25
2023-03-04T17:01:20.428Z,55.88
2023-03-04T17:03:47.491Z,52.22
2023-03-04T17:06:15.025Z,51.95
2023-03-04T17:08:41.901Z,59.30
2023-03-04T17:11:12.114Z,59.63
2023-03-04T17:16:05.961Z,54.03
2023-03-04T17:18:33.069Z,63.95
2023-03-04T17:21:07.749Z,55.13
2023-03-04T17:23:35.099Z,56.83
2023-03-04T17:26:01.771Z,62.25
2023-03-04T17:28:28.441Z,55.75
2023-03-04T17:30:55.375Z,58.40
2023-03-04T17:33:22.409Z,60.90
2023-03-04T17:35:49.481Z,61.28
2023-03-04T17:38:17.016Z,61.55
2023-03-04T17:40:44.684Z,67.10
2023-03-04T17:43:11.591Z,93.50
2023-03-04T17:45:39.410Z,94.15
2023-03-04T17:48:06.448Z,72.95
2023-03-04T17:50:33.688Z,70.30
2023-03-04T17:53:00.354Z,61.60
2023-03-04T17:55:26.972Z,64.75
2023-03-04T17:57:55.577Z,68.90
2023-03-04T18:00:22.525Z,66.57
2023-03-04T18:02:49.281Z,59.13
2023-03-04T18:05:16.199Z,65.22
2023-03-04T18:07:42.938Z,68.28
2023-03-04T18:10:10.106Z,68.18
2023-03-04T18:12:36.804Z,61.17
2023-03-04T18:15:03.890Z,63.42
2023-03-04T18:17:30.534Z,64.80
2023-03-04T18:19:57.164Z,63.78
2023-03-04T18:22:23.866Z,62.13
2023-03-04T18:24:50.472Z,62.40
2023-03-04T18:27:17.081Z,66.72
2023-03-04T18:29:43.710Z,69.65
2023-03-04T18:32:10.480Z,79.22
2023-03-04T18:34:37.164Z,69.53
2023-03-04T18:37:03.839Z,70.43
2023-03-04T18:39:30.464Z,75.07
2023-03-04T18:41:57.089Z,66.43
2023-03-04T18:44:23.689Z,70.00
2023-03-04T18:46:52.927Z,67.65
2023-03-04T18:49:20.586Z,83.43
2023-03-04T18:51:47.336Z,70.28
2023-03-04T18:54:14.194Z,73.80
2023-03-04T18:56:47.963Z,73.00
2023-03-04T18:59:21.627Z,70.35
2023-03-04T19:01:49.882Z,67.82
2023-03-04T19:04:19.175Z,75.50
2023-03-04T19:06:45.839Z,80.80
2023-03-04T19:09:12.652Z,72.60
2023-03-04T19:11:39.316Z,70.68
2023-03-04T19:14:06.326Z,78.18
2023-03-04T19:16:32.998Z,77.10
2023-03-04T19:18:59.642Z,81.18
2023-03-04T19:21:26.261Z,75.63
2023-03-04T19:23:52.886Z,76.95
2023-03-04T19:26:19.547Z,78.53
2023-03-04T19:28:46.221Z,67.82
2023-03-04T19:31:13.167Z,70.35
2023-03-04T19:33:41.321Z,66.78
2023-03-04T19:36:09.133Z,68.03
2023-03-04T19:38:36.126Z,66.43
2023-03-04T19:41:14.225Z,62.83
2023-03-04T19:43:40.969Z,68.90
2023-03-04T19:46:09.406Z,55.13
2023-03-04T19:48:37.727Z,58.90
2023-03-04T19:51:12.611Z,64.28
2023-03-04T19:53:39.230Z,57.53
2023-03-04T19:56:06.221Z,55.97
2023-03-04T19:58:32.880Z,62.80
2023-03-04T20:01:00.419Z,56.65
2023-03-04T20:03:27.044Z,56.42
2023-03-04T20:06:08.137Z,49.80
2023-03-04T20:08:37.927Z,55.55
2023-03-04T20:11:12.626Z,51.63
2023-03-04T20:13:39.296Z,50.05
2023-03-04T20:16:12.724Z,52.38
2023-03-04T20:18:40.249Z,53.58
2023-03-04T20:21:07.217Z,55.30
2023-03-04T20:23:34.311Z,55.47
2023-03-04T20:26:01.321Z,50.95
2023-03-04T20:28:28.267Z,60.65
2023-03-04T20:31:20.277Z,48.25
2023-03-04T20:33:48.814Z,55.03
2023-03-04T20:36:20.547Z,50.05
2023-03-04T20:38:48.396Z,57.22
2023-03-04T20:41:15.249Z,58.70
2023-03-04T20:43:41.975Z,51.50
2023-03-04T20:46:47.929Z,48.42
2023-03-04T20:49:24.045Z,54.25
2023-03-04T20:51:51.914Z,62.03
2023-03-04T20:54:19.050Z,56.55
2023-03-04T20:56:46.091Z,55.08
2023-03-04T20:59:13.195Z,57.85
2023-03-04T21:01:42.176Z,50.25
2023-03-04T21:04:09.456Z,56.17
2023-03-04T21:06:38.537Z,53.17
2023-03-04T21:09:12.755Z,52.55
2023-03-04T21:11:42.204Z,56.10
2023-03-04T21:14:16.592Z,62.55
2023-03-04T21:16:43.471Z,54.00
2023-03-04T21:19:22.565Z,50.67
2023-03-04T21:21:50.774Z,58.38
2023-03-04T21:24:20.365Z,53.08
2023-03-04T21:26:47.936Z,58.10
2023-03-04T21:29:19.745Z,58.25
2023-03-04T21:31:55.203Z,52.95
2023-03-04T21:34:26.284Z,50.60
2023-03-04T21:36:52.905Z,52.90
2023-03-04T21:39:22.224Z,53.40
2023-03-04T21:41:49.122Z,50.22
2023-03-04T21:44:27.701Z,52.38
2023-03-04T21:46:57.216Z,55.90
2023-03-04T21:49:24.278Z,48.35
2023-03-04T21:51:50.927Z,54.30
2023-03-04T21:54:17.944Z,53.72
2023-03-04T21:56:44.620Z,51.63
2023-03-04T21:59:13.807Z,56.42
2023-03-04T22:01:41.725Z,51.47
2023-03-04T22:04:08.935Z,50.45
2023-03-04T22:06:35.865Z,53.70
2023-03-04T22:09:04.347Z,59.53
2023-03-04T22:11:31.859Z,56.47
2023-03-04T22:14:00.960Z,57.03
2023-03-04T22:16:28.588Z,58.17
2023-03-04T22:18:55.514Z,51.08
2023-03-04T22:21:22.291Z,54.95
2023-03-04T22:23:49.253Z,63.47
2023-03-04T22:26:21.723Z,51.63
2023-03-04T22:28:48.361Z,55.47
2023-03-04T22:31:17.818Z,60.85
2023-03-04T22:33:44.820Z,57.47
2023-03-04T22:36:12.675Z,55.28
2023-03-04T22:38:40.076Z,44.20
2023-03-04T22:41:15.615Z,56.28
2023-03-04T22:43:43.155Z,52.95
2023-03-04T22:46:20.057Z,54.83
2023-03-04T22:48:47.408Z,50.10
2023-03-04T22:51:14.464Z,47.85
2023-03-04T22:53:42.146Z,49.95
2023-03-04T22:56:09.661Z,45.90
2023-03-04T22:58:36.591Z,52.53
2023-03-04T23:01:04.516Z,59.42
2023-03-04T23:03:31.318Z,59.40
2023-03-04T23:06:12.684Z,53.83
2023-03-04T23:08:40.832Z,54.00
2023-03-04T23:11:10.119Z,51.33
2023-03-04T23:13:37.984Z,57.38
2023-03-04T23:16:07.912Z,46.65
2023-03-04T23:18:35.506Z,54.67
2023-03-04T23:21:25.627Z,53.47
2023-03-04T23:26:25.283Z,48.70
2023-03-04T23:28:53.199Z,56.78
2023-03-04T23:31:19.953Z,51.65
2023-03-04T23:33:48.427Z,56.90
2023-03-04T23:36:17.599Z,50.70
2023-03-04T23:38:46.072Z,58.23
2023-03-04T23:41:14.588Z,56.85
2023-03-04T23:43:41.340Z,52.65
2023-03-04T23:46:14.314Z,54.28
2023-03-04T23:48:43.657Z,56.88
2023-03-04T23:51:10.487Z,62.17
2023-03-04T23:53:39.025Z,55.17
2023-03-04T23:56:09.867Z,60.38
2023-03-04T23:58:36.768Z,53.05
